• Join FlightAware (Why Join?)
  • Login
  • US Flag 
01:35AM EDT


 

Airport Tracker/Info


-or-


 

Live Flight TrackerFlight Track Log ✈ N1811Y ✈ 18-Jul-2013 ✈ KFAM - KTRI

Flight Track Log - Related Links

Times and Time Zones

All times are in EDT time to prevent confusion due to time zone crossing. See the N1811Y flight status page for this flight to view local times or setup timezone preferences in your user account.

Time Position Orientation Groundspeed Altitude Reporting Facility
EDT Latitude Longitude Course Direction KTS MPH feet Rate Location/Type
09:17AM 37.7472 -90.2539 99° East 129 148 3,500  Level Kansas City Center
09:18AM 37.7358 -90.2083 108° East 133 153 4,000 420 Climbing Kansas City Center
09:20AM 37.7258 -90.1611 105° East 140 161 4,400 480 Climbing Kansas City Center
09:21AM 37.7139 -90.1033 105° East 142 163 5,000 480 Climbing Kansas City Center
09:22AM 37.7028 -90.0581 107° East 137 158 5,500 420 Climbing Kansas City Center
09:23AM 37.7193 -90.0962 99° East  Level Estimated
09:23AM 37.7028 -90.0086 90° East 145 167 5,900  Level Kansas City Center
09:24AM 37.6925 -89.9631 106° East 139 160 6,300 420 Climbing Kansas City Center
09:25AM 37.6839 -89.9150 103° East 139 160 6,800 240 Climbing Kansas City Center
09:26AM 37.6775 -89.8672 100° East 138 159 6,900  Climbing Kansas City Center
09:27AM 37.6686 -89.8011 100° East 153 176 6,900  Level Kansas City Center
09:28AM 37.6603 -89.7447 101° East 160 184 6,900  Level Kansas City Center
09:29AM 37.6539 -89.6886 98° East 162 186 6,900  Level Kansas City Center
09:30AM 37.6464 -89.6347 100° East 159 183 6,900  Level Kansas City Center
09:31AM 37.6394 -89.5772 99° East 162 186 6,900  Level Kansas City Center
09:32AM 37.6322 -89.5222 99° East 161 185 6,900  Level Kansas City Center
09:33AM 37.6228 -89.4539 100° East 164 189 6,900  Level Kansas City Center
09:34AM 37.6153 -89.3983 100° East 163 188 6,900  Level Kansas City Center
09:35AM 37.6089 -89.3456 99° East 162 186 6,900  Level Kansas City Center
09:36AM 37.5997 -89.2800 100° East 160 184 6,900  Level Kansas City Center
09:37AM 37.5925 -89.2222 99° East 162 186 6,900  Level Kansas City Center
09:38AM 37.5839 -89.1658 101° East 163 188 6,900  Level Kansas City Center
09:39AM 37.5764 -89.1100 100° East 162 186 6,900  Level Kansas City Center
09:40AM 37.5689 -89.0542 100° East 162 186 6,900  Level Kansas City Center
09:41AM 37.5622 -88.9975 98° East 162 186 6,900  Level Kansas City Center
09:42AM 37.5531 -88.9294 100° East 164 189 6,900  Level Kansas City Center
09:43AM 37.5444 -88.8731 101° East 165 190 6,900  Level Kansas City Center
09:44AM 37.5378 -88.8181 99° East 160 184 6,900  Level Kansas City Center
09:45AM 37.5292 -88.7619 101° East 161 185 6,900  Level Kansas City Center
09:46AM 37.5208 -88.7061 101° East 162 186 6,900  Level Kansas City Center
09:47AM 37.5139 -88.6503 99° East 163 188 6,900  Level Kansas City Center
09:48AM 37.5114 -88.6208 96° East 162 186 6,900  Level Memphis Center
09:49AM 37.5044 -88.5742 101° East 154 177 6,900  Level Memphis Center
09:50AM 37.4953 -88.5142 101° East 161 185 6,900  Level Memphis Center
09:51AM 37.4861 -88.4569 101° East 166 191 6,900  Level Memphis Center
09:52AM 37.4811 -88.4047 97° East 161 185 6,900  Level Memphis Center
09:53AM 37.4714 -88.3414 101° East 161 185 6,900  Level Indianapolis Center
09:54AM 37.4642 -88.2856 99° East 161 185 6,900  Level Indianapolis Center
09:55AM 37.4561 -88.2303 100° East 160 184 6,900  Level Indianapolis Center
09:56AM 37.4469 -88.1753 102° East 161 185 7,000  Climbing Indianapolis Center
09:57AM 37.4400 -88.1197 99° East 160 184 7,000  Level Indianapolis Center
09:58AM 37.4306 -88.0642 102° East 162 186 7,000  Level Indianapolis Center
09:59AM 37.4256 -87.9983 95° East 159 183 7,100  Climbing Indianapolis Center
10:00AM 37.4350 -87.9442 78° East 159 183 7,100  Level Indianapolis Center
10:01AM 37.4417 -87.8906 81° East 156 180 7,100 -60 Level Indianapolis Center
10:02AM 37.4525 -87.8350 76° East 160 184 7,000 -60 Descending Indianapolis Center
10:03AM 37.4644 -87.7800 75° East 163 188 7,000 180 Level Indianapolis Center
10:04AM 37.4719 -87.7250 80° East 161 185 7,400 480 Climbing Indianapolis Center
10:05AM 37.4819 -87.6819 74° East 139 160 8,000 600 Climbing Indianapolis Center
10:06AM 37.4919 -87.6336 75° East 123 142 8,700 480 Climbing Indianapolis Center
10:07AM 37.4792 -87.6089 123° Southeast 135 155 9,000 120 Climbing Indianapolis Center
10:08AM 37.4419 -87.6325 207° Southwest 149 171 9,000  Level Indianapolis Center
10:09AM 37.3992 -87.6253 172° South 156 180 9,000  Level Indianapolis Center
10:10AM 37.3619 -87.5928 145° Southeast 159 183 9,000  Level Indianapolis Center
10:11AM 37.3328 -87.5514 132° Southeast 157 181 9,000  Level Indianapolis Center
10:13AM 37.3031 -87.5119 133° Southeast 156 180 9,000  Level Indianapolis Center
10:14AM 37.2817 -87.4536 115° Southeast 153 176 9,000  Level Indianapolis Center
10:15AM 37.2758 -87.4019 98° East 151 174 9,000  Level Indianapolis Center
10:16AM 37.2658 -87.3500 104° East 152 175 9,000  Level Indianapolis Center
10:17AM 37.2597 -87.2956 98° East 155 178 9,000  Level Indianapolis Center
10:18AM 37.2508 -87.2400 101° East 153 176 9,000  Level Indianapolis Center
10:19AM 37.2431 -87.1853 100° East 156 180 9,000  Level Indianapolis Center
10:20AM 37.2347 -87.1331 101° East 154 177 9,000  Level Indianapolis Center
10:21AM 37.2275 -87.0775 99° East 158 182 9,000  Level Indianapolis Center
10:22AM 37.2183 -87.0142 100° East 156 180 9,000  Level Indianapolis Center
10:23AM 37.2117 -86.9600 99° East 156 180 9,000  Level Indianapolis Center
10:24AM 37.2031 -86.9067 101° East 156 180 9,000  Level Indianapolis Center
10:25AM 37.1958 -86.8536 100° East 154 177 9,000  Level Indianapolis Center
10:26AM 37.1883 -86.8014 100° East 152 175 9,000  Level Indianapolis Center
10:27AM 37.1803 -86.7483 101° East 153 176 9,000  Level Indianapolis Center
10:28AM 37.1733 -86.6964 100° East 152 175 9,000  Level Indianapolis Center
10:29AM 37.1658 -86.6444 100° East 150 173 9,000  Level Indianapolis Center
10:30AM 37.1564 -86.5817 101° East 151 174 9,000  Level Indianapolis Center
10:31AM 37.1486 -86.5292 101° East 154 177 9,000  Level Indianapolis Center
10:32AM 37.1411 -86.4756 100° East 156 180 9,000  Level Indianapolis Center
10:33AM 37.1333 -86.4217 100° East 155 178 9,000  Level Indianapolis Center
10:34AM 37.1256 -86.3694 101° East 153 176 9,000  Level Indianapolis Center
10:35AM 37.1169 -86.3161 101° East 154 177 9,000  Level Indianapolis Center
10:36AM 37.1100 -86.2625 99° East 154 177 9,000  Level Indianapolis Center
10:37AM 37.1017 -86.2089 101° East 155 178 9,000  Level Indianapolis Center
10:38AM 37.0958 -86.1656 100° East 153 176 9,000  Level Indianapolis Center
10:39AM 37.0864 -86.1036 101° East 152 175 9,000  Level Indianapolis Center
10:40AM 37.0781 -86.0492 101° East 156 180 9,000  Level Indianapolis Center
10:41AM 37.0708 -85.9967 100° East 154 177 9,000  Level Indianapolis Center
10:42AM 37.0625 -85.9453 101° East 151 174 9,000  Level Indianapolis Center
10:43AM 37.0536 -85.8919 102° East 154 177 9,000  Level Indianapolis Center
10:44AM 37.0461 -85.8381 100° East 157 181 9,000  Level Indianapolis Center
10:45AM 37.0378 -85.7853 101° East 154 177 9,000  Level Indianapolis Center
10:46AM 37.0306 -85.7331 100° East 151 174 9,000  Level Indianapolis Center
10:47AM 37.0203 -85.6719 102° East 152 175 9,000  Level Indianapolis Center
10:48AM 37.0125 -85.6189 100° East 153 176 9,000  Level Indianapolis Center
10:50AM 37.0053 -85.5664 100° East 153 176 9,000  Level Indianapolis Center
10:51AM 36.9956 -85.5139 103° East 153 176 9,000  Level Indianapolis Center
10:52AM 36.9875 -85.4589 100° East 153 176 9,000  Level Indianapolis Center
10:53AM 36.9786 -85.4056 102° East 155 178 9,000  Level Indianapolis Center
10:54AM 36.9642 -85.3556 110° East 154 177 9,000  Level Indianapolis Center
10:55AM 36.9483 -85.3050 111° Southeast 155 178 9,000  Level Indianapolis Center
10:56AM 36.9283 -85.2572 118° Southeast 155 178 9,000  Level Indianapolis Center
10:57AM 36.9186 -85.1950 101° East 151 174 9,000  Level Indianapolis Center
10:58AM 36.9092 -85.1439 103° East 150 173 9,000  Level Indianapolis Center
10:59AM 36.9022 -85.0900 99° East 154 177 9,000  Level Indianapolis Center
11:00AM 36.8933 -85.0372 102° East 155 178 9,000  Level Indianapolis Center
11:01AM 36.8869 -84.9833 98° East 156 180 9,000  Level Indianapolis Center
11:02AM 36.8786 -84.9311 101° East 154 177 9,000  Level Indianapolis Center
11:03AM 36.8706 -84.8789 101° East 153 176 9,000  Level Indianapolis Center
11:04AM 36.8606 -84.8161 101° East 154 177 9,000  Level Indianapolis Center
11:05AM 36.8531 -84.7647 100° East 151 174 9,000  Level Indianapolis Center
11:06AM 36.8450 -84.7114 101° East 156 180 9,000  Level Indianapolis Center
11:07AM 36.8378 -84.6608 100° East 151 174 9,000  Level Indianapolis Center
11:08AM 36.8289 -84.6089 102° East 152 175 9,000  Level Indianapolis Center
11:09AM 36.8217 -84.5583 100° East 150 173 9,000  Level Indianapolis Center
11:10AM 36.8128 -84.5025 101° East 151 174 9,000  Level Indianapolis Center
11:11AM 36.8050 -84.4514 101° East 151 174 9,000  Level Indianapolis Center
11:12AM 36.7969 -84.3989 101° East 152 175 9,000  Level Indianapolis Center
11:13AM 36.7889 -84.3400 100° East 150 173 9,000  Level Indianapolis Center
11:14AM 36.7794 -84.2886 103° East 150 173 9,000  Level Indianapolis Center
11:15AM 36.7719 -84.2367 100° East 151 174 9,000  Level Indianapolis Center
11:16AM 36.7642 -84.1867 101° East 149 171 9,000  Level Indianapolis Center
11:17AM 36.7564 -84.1350 101° East 150 173 9,000  Level Indianapolis Center
11:18AM 36.7464 -84.0750 102° East 151 174 9,000  Level Indianapolis Center
11:19AM 36.7378 -84.0231 102° East 152 175 9,000  Level Indianapolis Center
11:20AM 36.7303 -83.9717 100° East 150 173 9,000  Level Indianapolis Center
11:22AM 36.7214 -83.9206 102° East 152 175 9,000  Level Indianapolis Center
11:23AM 36.7144 -83.8706 100° East 148 170 9,000  Level Indianapolis Center
11:24AM 36.7056 -83.8192 102° East 150 173 9,000  Level Indianapolis Center
11:25AM 36.6956 -83.7583 102° East 152 175 9,000  Level Indianapolis Center
11:26AM 36.6875 -83.7083 101° East 150 173 9,000 -60 Level Indianapolis Center
11:27AM 36.6797 -83.6558 100° East 151 174 8,900  Descending Indianapolis Center
11:28AM 36.6711 -83.6044 102° East 152 175 9,000  Climbing Indianapolis Center
11:29AM 36.6642 -83.5542 100° East 149 171 9,000  Level Indianapolis Center
11:30AM 36.6544 -83.5039 104° East 149 171 9,000  Level Indianapolis Center
11:31AM 36.6456 -83.4442 100° East 150 173 9,000  Level Indianapolis Center
11:32AM 36.6367 -83.3928 102° East 152 175 9,000  Level Indianapolis Center
11:33AM 36.6278 -83.3411 102° East 152 175 9,000  Level Indianapolis Center
11:34AM 36.6194 -83.2911 102° East 150 173 9,000  Level Indianapolis Center
11:35AM 36.6114 -83.2386 101° East 153 176 9,000  Level Indianapolis Center
11:36AM 36.6017 -83.1806 102° East 148 170 9,000 -120 Level Indianapolis Center
11:37AM 36.5939 -83.1286 101° East 151 174 8,800 -360 Descending Indianapolis Center
11:39AM 36.5753 -83.0072 101° East 159 183 7,900 -420 Descending Atlanta Center